Infinity Of Yar — 2JLA9 — position and weather

sailwx.info

Track history (hours):
 
Tides and Currents Weather Stations Pressure Air Temp Water Temp Dewpoint Dewpoint Depression Visibility Wind Speed Wind Dir Waves Ship Positions

Infinity Of Yar

Last reported at 2017-Oct-17 17:35 UTC. Time now 2017-Oct-19 22:02 UTC.
Position N 28°08' W 015°26'.

Length 14 m.

Type: Sailing vessel. MMSI: 235116821.

Date/timePositionNaut miles runAvg speedWind from/ knotsBaromVisibWave heightAir tempDewpointWater temp
2017-Oct-17 17:35N 28°08' W 015°26'0 0.0
2017-Oct-17 17:23N 28°08' W 015°26'0 0.0
2017-Oct-17 16:53N 28°08' W 015°26'0 1.0
2017-Oct-17 16:27N 28°08' W 015°25'3 6.1
2017-Oct-17 15:57N 28°07' W 015°22'4 7.8
2017-Oct-17 15:26N 28°07' W 015°17'4 8.1
2017-Oct-17 14:56N 28°08' W 015°12'4 8.2
2017-Oct-17 14:26N 28°08' W 015°08'4 8.0
2017-Oct-17 13:55N 28°08' W 015°03'3 7.8
2017-Oct-17 13:30N 28°08' W 014°60'4 7.5
2017-Oct-17 13:00N 28°08' W 014°55'4 7.5
2017-Oct-17 12:30N 28°07' W 014°51'4 7.1
2017-Oct-17 12:00N 28°06' W 014°47'4 7.2
2017-Oct-17 11:30N 28°05' W 014°43'4 7.1
2017-Oct-17 11:00N 28°04' W 014°39'4 7.2
2017-Oct-17 10:30N 28°04' W 014°35'4 7.6
2017-Oct-17 10:00N 28°03' W 014°31'4 7.5
2017-Oct-17 09:29N 28°03' W 014°27'  
2017-Oct-14 10:55N 28°38' W 013°46'3 6.5
2017-Oct-14 10:30N 28°41' W 013°45'  
Track history (hours):
 
Tides and Currents Weather Stations Pressure Air Temp Water Temp Dewpoint Dewpoint Depression Visibility Wind Speed Wind Dir Waves Ship Positions

Infinity Of Yar

Last reported at 2017-Oct-17 17:35 UTC. Time now 2017-Oct-19 22:02 UTC.
Position N 28°08' W 015°26'.

Length 14 m.

Type: Sailing vessel. MMSI: 235116821.

Date/timePositionNaut miles runAvg speedWind from/ knotsBaromVisibWave heightAir tempDewpointWater temp
2017-Oct-17 17:35N 28°08' W 015°26'0 0.0
2017-Oct-17 17:23N 28°08' W 015°26'0 0.0
2017-Oct-17 16:53N 28°08' W 015°26'0 1.0
2017-Oct-17 16:27N 28°08' W 015°25'3 6.1
2017-Oct-17 15:57N 28°07' W 015°22'4 7.8
2017-Oct-17 15:26N 28°07' W 015°17'4 8.1
2017-Oct-17 14:56N 28°08' W 015°12'4 8.2
2017-Oct-17 14:26N 28°08' W 015°08'4 8.0
2017-Oct-17 13:55N 28°08' W 015°03'3 7.8
2017-Oct-17 13:30N 28°08' W 014°60'4 7.5
2017-Oct-17 13:00N 28°08' W 014°55'4 7.5
2017-Oct-17 12:30N 28°07' W 014°51'4 7.1
2017-Oct-17 12:00N 28°06' W 014°47'4 7.2
2017-Oct-17 11:30N 28°05' W 014°43'4 7.1
2017-Oct-17 11:00N 28°04' W 014°39'4 7.2
2017-Oct-17 10:30N 28°04' W 014°35'4 7.6
2017-Oct-17 10:00N 28°03' W 014°31'4 7.5
2017-Oct-17 09:29N 28°03' W 014°27'  
2017-Oct-14 10:55N 28°38' W 013°46'3 6.5
2017-Oct-14 10:30N 28°41' W 013°45'  

Dump ship's entire track history